createdAt,value
2024-04-05T00:02:01.725Z,0.70
2024-04-05T00:04:32.108Z,0.70
2024-04-05T00:07:02.315Z,0.50
2024-04-05T00:09:32.519Z,0.80
2024-04-05T00:12:02.932Z,0.60
2024-04-05T00:14:33.165Z,1.00
2024-04-05T00:17:03.518Z,1.00
2024-04-05T00:19:34.573Z,0.60
2024-04-05T00:22:05.152Z,0.80
2024-04-05T00:24:35.687Z,0.50
2024-04-05T00:27:06.462Z,0.60
2024-04-05T00:29:37.801Z,0.70
2024-04-05T00:32:09.093Z,0.90
2024-04-05T00:34:39.414Z,0.30
2024-04-05T00:37:10.091Z,1.20
2024-04-05T00:39:40.420Z,0.20
2024-04-05T00:42:11.184Z,0.50
2024-04-05T00:44:41.760Z,0.40
2024-04-05T00:47:12.735Z,1.20
2024-04-05T00:49:43.400Z,0.40
2024-04-05T00:52:14.667Z,0.60
2024-04-05T00:54:45.314Z,0.40
2024-04-05T00:57:15.539Z,0.40
2024-04-05T00:59:47.701Z,3.00
2024-04-05T01:02:18.436Z,0.70
2024-04-05T01:04:48.710Z,0.70
2024-04-05T01:07:18.921Z,0.80
2024-04-05T01:09:49.302Z,1.00
2024-04-05T01:12:19.466Z,0.30
2024-04-05T01:14:49.737Z,0.60
2024-04-05T01:17:20.057Z,0.70
2024-04-05T01:19:52.814Z,0.50
2024-04-05T01:22:29.357Z,0.50
2024-04-05T01:24:59.629Z,0.70
2024-04-05T01:27:29.804Z,0.40
2024-04-05T01:30:00.131Z,0.30
2024-04-05T01:32:30.373Z,0.50
2024-04-05T01:35:00.905Z,0.80
2024-04-05T01:37:31.281Z,0.20
2024-04-05T01:40:01.961Z,0.50
2024-04-05T01:42:32.803Z,0.40
2024-04-05T01:45:03.204Z,0.70
2024-04-05T01:47:33.866Z,0.30
2024-04-05T01:50:04.910Z,0.40
2024-04-05T01:52:35.169Z,0.70
2024-04-05T01:55:06.328Z,0.30
2024-04-05T01:57:39.708Z,0.30
2024-04-05T02:00:11.680Z,0.70
2024-04-05T02:02:42.145Z,0.50
2024-04-05T02:05:12.477Z,0.60
2024-04-05T02:07:43.281Z,0.50
2024-04-05T02:10:13.781Z,0.30
2024-04-05T02:12:44.009Z,0.40
2024-04-05T02:15:14.938Z,0.70
2024-04-05T02:17:45.336Z,0.60
2024-04-05T02:20:15.671Z,0.30
2024-04-05T02:22:46.051Z,0.90
2024-04-05T02:25:16.636Z,0.60
2024-04-05T02:27:47.099Z,0.20
2024-04-05T02:30:17.464Z,0.10
2024-04-05T02:32:47.661Z,0.40
2024-04-05T02:35:18.251Z,0.30
2024-04-05T02:37:48.540Z,0.40
2024-04-05T02:40:19.159Z,0.50
2024-04-05T02:42:49.513Z,0.30
2024-04-05T02:45:20.305Z,0.80
2024-04-05T02:47:50.536Z,0.60
2024-04-05T02:50:21.041Z,0.40
2024-04-05T02:52:51.313Z,0.40
2024-04-05T02:55:21.675Z,0.50
2024-04-05T02:57:52.259Z,0.50
2024-04-05T03:00:22.567Z,0.30
2024-04-05T03:02:53.280Z,0.30
2024-04-05T03:05:24.107Z,0.20
2024-04-05T03:07:54.809Z,0.50
2024-04-05T03:10:25.319Z,0.20
2024-04-05T03:12:55.907Z,0.40
2024-04-05T03:15:28.615Z,0.30
2024-04-05T03:17:59.016Z,0.20
2024-04-05T03:20:29.907Z,0.40
2024-04-05T03:23:00.638Z,0.80
2024-04-05T03:25:31.367Z,0.40
2024-04-05T03:28:01.769Z,0.30
2024-04-05T03:30:33.271Z,0.20
2024-04-05T03:33:03.914Z,0.50
2024-04-05T03:35:36.688Z,0.50
2024-04-05T03:38:07.624Z,0.10
2024-04-05T03:40:43.036Z,0.30
2024-04-05T03:43:13.407Z,0.50
2024-04-05T03:45:44.113Z,0.80
2024-04-05T03:48:14.495Z,0.70
2024-04-05T03:50:44.968Z,0.50
2024-04-05T03:53:15.227Z,0.40
2024-04-05T03:55:46.012Z,0.30
2024-04-05T03:58:16.380Z,0.30
2024-04-05T04:00:53.306Z,0.70
2024-04-05T04:03:23.941Z,0.20
2024-04-05T04:05:54.999Z,0.20
2024-04-05T04:08:25.567Z,0.30
2024-04-05T04:10:56.767Z,0.30
2024-04-05T04:13:27.588Z,0.60
2024-04-05T04:15:58.354Z,1.00
2024-04-05T04:18:28.954Z,0.30
2024-04-05T04:21:00.962Z,0.40
2024-04-05T04:23:32.009Z,0.70
2024-04-05T04:26:04.676Z,0.50
2024-04-05T04:28:35.018Z,0.40
2024-04-05T04:31:20.078Z,0.40
2024-04-05T04:33:51.646Z,1.70
2024-04-05T04:36:23.177Z,1.50
2024-04-05T04:38:54.352Z,0.70
2024-04-05T04:41:24.656Z,2.20
2024-04-05T04:43:56.505Z,1.50
2024-04-05T04:46:26.890Z,1.70
2024-04-05T04:48:58.553Z,1.60
2024-04-05T04:51:29.220Z,1.60
2024-04-05T04:54:00.671Z,1.70
2024-04-05T04:56:31.940Z,2.20
2024-04-05T04:59:02.283Z,1.90
2024-04-05T05:01:32.585Z,1.70
2024-04-05T05:04:02.895Z,1.90
2024-04-05T05:06:33.790Z,1.70
2024-04-05T05:09:04.593Z,2.30
2024-04-05T05:11:35.024Z,1.80
2024-04-05T05:14:05.348Z,1.60
2024-04-05T05:16:37.932Z,1.30
2024-04-05T05:19:08.632Z,1.10
2024-04-05T05:21:39.923Z,0.90
2024-04-05T05:24:10.521Z,1.80
2024-04-05T05:26:41.035Z,1.90
2024-04-05T05:29:11.443Z,1.50
2024-04-05T05:31:41.882Z,0.60
2024-04-05T05:34:12.353Z,0.90
2024-04-05T05:36:42.836Z,1.60
2024-04-05T05:39:13.974Z,1.10
2024-04-05T05:41:44.401Z,1.60
2024-04-05T05:44:14.693Z,1.10
2024-04-05T05:46:45.618Z,1.70
2024-04-05T05:49:16.212Z,0.90
2024-04-05T05:51:46.523Z,1.00
2024-04-05T05:54:16.850Z,1.00
2024-04-05T05:56:47.184Z,1.10
2024-04-05T05:59:17.951Z,3.60
2024-04-05T06:01:48.586Z,0.40
2024-04-05T06:04:19.196Z,1.60
2024-04-05T06:06:50.237Z,1.00
2024-04-05T06:09:21.378Z,1.20
2024-04-05T06:11:52.058Z,1.90
2024-04-05T06:14:22.757Z,1.60
2024-04-05T06:16:54.424Z,0.50
2024-04-05T06:19:24.952Z,1.70
2024-04-05T06:21:55.279Z,1.10
2024-04-05T06:24:26.016Z,0.60
2024-04-05T06:26:56.478Z,1.00
2024-04-05T06:29:26.953Z,1.50
2024-04-05T06:31:58.064Z,4.10
2024-04-05T06:34:28.722Z,2.30
2024-04-05T06:36:59.082Z,1.90
2024-04-05T06:39:29.743Z,1.30
2024-04-05T06:42:00.255Z,2.10
2024-04-05T06:44:35.786Z,1.40
2024-04-05T06:47:07.533Z,1.30
2024-04-05T06:49:39.287Z,1.00
2024-04-05T06:52:11.839Z,1.20
2024-04-05T06:54:47.165Z,2.10
2024-04-05T06:57:17.730Z,2.20
2024-04-05T06:59:48.240Z,1.40
2024-04-05T07:02:21.882Z,1.20
2024-04-05T07:04:53.034Z,1.80
2024-04-05T07:07:24.224Z,0.60
2024-04-05T07:09:55.623Z,1.40
2024-04-05T07:12:26.090Z,1.50
2024-04-05T07:14:56.527Z,0.80
2024-04-05T07:17:27.021Z,1.50
2024-04-05T07:19:57.961Z,1.20
2024-04-05T07:22:28.881Z,1.40
2024-04-05T07:24:59.757Z,1.70
2024-04-05T07:27:30.186Z,0.70
2024-04-05T07:30:00.508Z,1.00
2024-04-05T07:32:31.082Z,1.50
2024-04-05T07:35:01.755Z,0.80
2024-04-05T07:37:32.569Z,1.60
2024-04-05T07:40:03.981Z,1.80
2024-04-05T07:42:35.522Z,1.00
2024-04-05T07:45:06.847Z,1.90
2024-04-05T07:47:39.822Z,1.70
2024-04-05T07:50:11.262Z,1.50
2024-04-05T07:52:41.918Z,2.30
2024-04-05T07:55:13.094Z,1.20
2024-04-05T07:57:44.324Z,0.90
2024-04-05T08:00:16.309Z,2.40
2024-04-05T08:02:50.650Z,0.90
2024-04-05T08:05:21.268Z,3.80
2024-04-05T08:07:51.838Z,1.20
2024-04-05T08:10:22.763Z,2.50
2024-04-05T08:12:54.143Z,2.00
2024-04-05T08:15:24.847Z,2.30
2024-04-05T08:17:56.394Z,3.30
2024-04-05T08:20:27.187Z,2.80
2024-04-05T08:22:58.257Z,1.60
2024-04-05T08:25:29.223Z,4.10
2024-04-05T08:27:59.809Z,1.50
2024-04-05T08:30:30.210Z,4.00
2024-04-05T08:33:03.230Z,1.70
2024-04-05T08:35:33.622Z,5.60
2024-04-05T08:38:07.872Z,2.90
2024-04-05T08:40:41.379Z,2.90
2024-04-05T08:43:13.250Z,1.10
2024-04-05T08:45:44.477Z,2.40
2024-04-05T08:48:17.006Z,3.30
2024-04-05T08:50:48.524Z,1.70
2024-04-05T08:53:18.874Z,2.00
2024-04-05T08:55:50.026Z,2.80
2024-04-05T08:58:20.841Z,3.20
2024-04-05T09:00:52.260Z,2.30
2024-04-05T09:03:23.269Z,2.80
2024-04-05T09:05:55.032Z,2.50
2024-04-05T09:08:25.500Z,1.50
2024-04-05T09:10:56.879Z,2.60
2024-04-05T09:13:27.480Z,1.10
2024-04-05T09:16:01.636Z,3.30
2024-04-05T09:18:31.923Z,1.80
2024-04-05T09:21:02.287Z,1.00
2024-04-05T09:23:32.657Z,2.40
2024-04-05T09:26:06.289Z,2.30
2024-04-05T09:28:36.696Z,2.60
2024-04-05T09:31:07.224Z,2.00
2024-04-05T09:33:37.755Z,3.00
2024-04-05T09:36:12.374Z,1.90
2024-04-05T09:38:43.209Z,1.70
2024-04-05T09:41:15.135Z,2.60
2024-04-05T09:43:58.240Z,1.60
2024-04-05T09:46:38.315Z,2.70
2024-04-05T09:49:08.806Z,2.30
2024-04-05T09:51:45.249Z,3.50
2024-04-05T09:54:18.290Z,2.40
2024-04-05T09:56:49.782Z,4.20
2024-04-05T09:59:25.075Z,2.00
2024-04-05T10:01:57.066Z,2.20
2024-04-05T10:04:27.887Z,2.40
2024-04-05T10:07:08.915Z,4.00
2024-04-05T10:09:40.237Z,4.00
2024-04-05T10:12:18.481Z,3.90
2024-04-05T10:14:58.234Z,3.70
2024-04-05T10:17:31.682Z,2.70
2024-04-05T10:20:12.571Z,1.90
2024-04-05T10:22:44.118Z,1.90
2024-04-05T10:25:14.886Z,1.40
2024-04-05T10:27:45.233Z,2.20
2024-04-05T10:30:19.250Z,3.80
2024-04-05T10:33:00.508Z,1.70
2024-04-05T10:35:30.857Z,1.50
2024-04-05T10:38:14.340Z,4.30
2024-04-05T10:40:59.987Z,2.40
2024-04-05T10:43:31.040Z,6.80
2024-04-05T10:46:02.644Z,9.60
2024-04-05T10:48:33.089Z,19.40
2024-04-05T10:51:06.231Z,20.20
2024-04-05T10:53:36.636Z,18.70
2024-04-05T10:56:07.911Z,24.90
2024-04-05T10:58:41.470Z,16.50
2024-04-05T11:01:12.201Z,18.40
2024-04-05T11:03:42.916Z,15.30
2024-04-05T11:06:13.268Z,13.00
2024-04-05T11:08:53.070Z,11.40
2024-04-05T11:11:24.481Z,12.30
2024-04-05T11:14:05.061Z,10.40
2024-04-05T11:16:37.154Z,7.80
2024-04-05T11:19:08.109Z,14.90
2024-04-05T11:21:38.844Z,11.10
2024-04-05T11:24:09.498Z,7.00
2024-04-05T11:26:39.910Z,14.70
2024-04-05T11:29:10.239Z,9.40
2024-04-05T11:31:40.631Z,8.20
2024-04-05T11:34:10.991Z,9.30
2024-04-05T11:36:41.948Z,8.50
2024-04-05T11:39:15.462Z,6.00
2024-04-05T11:41:45.972Z,9.80
2024-04-05T11:44:16.592Z,6.90
2024-04-05T11:46:48.978Z,6.40
2024-04-05T11:49:19.327Z,5.00
2024-04-05T11:51:49.946Z,4.90
2024-04-05T11:54:20.371Z,5.50
2024-04-05T11:56:50.731Z,6.80
2024-04-05T11:59:22.134Z,5.20
2024-04-05T12:01:53.819Z,2.60
2024-04-05T12:04:24.961Z,4.90
2024-04-05T12:06:55.391Z,5.10
2024-04-05T12:09:25.957Z,4.40
2024-04-05T12:11:56.504Z,2.30
2024-04-05T12:14:27.214Z,5.30
2024-04-05T12:16:57.796Z,6.40
2024-04-05T12:19:28.580Z,4.30
2024-04-05T12:21:59.972Z,3.80
2024-04-05T12:24:30.576Z,4.50
2024-04-05T12:27:11.994Z,3.40
2024-04-05T12:29:49.423Z,3.40
2024-04-05T12:32:19.892Z,2.20
2024-04-05T12:34:50.551Z,3.10
2024-04-05T12:37:23.621Z,4.40
2024-04-05T12:39:56.007Z,4.70
2024-04-05T12:42:26.448Z,1.50
2024-04-05T12:44:57.111Z,2.10
2024-04-05T12:47:27.807Z,2.20
2024-04-05T12:49:58.412Z,3.10
2024-04-05T12:52:29.090Z,3.60
2024-04-05T12:54:59.519Z,2.20
2024-04-05T12:57:30.218Z,3.20
2024-04-05T13:00:01.133Z,1.90
2024-04-05T13:02:31.492Z,1.80
2024-04-05T13:05:02.047Z,1.40
2024-04-05T13:07:32.394Z,0.80
2024-04-05T13:10:02.790Z,2.50
2024-04-05T13:12:33.419Z,1.70
2024-04-05T13:15:03.952Z,2.90
2024-04-05T13:17:34.469Z,1.80
2024-04-05T13:20:05.593Z,2.50
2024-04-05T13:22:36.064Z,1.40
2024-04-05T13:25:07.473Z,0.80
2024-04-05T13:27:39.032Z,1.70
2024-04-05T13:30:11.208Z,1.80
2024-04-05T13:32:42.908Z,3.80
2024-04-05T13:35:13.500Z,1.40
2024-04-05T13:37:44.004Z,3.10
2024-04-05T13:40:15.281Z,2.60
2024-04-05T13:42:47.787Z,1.70
2024-04-05T13:45:18.463Z,1.70
2024-04-05T13:47:49.043Z,1.90
2024-04-05T13:50:21.633Z,1.10
2024-04-05T13:52:52.604Z,1.80
2024-04-05T13:55:23.051Z,2.30
2024-04-05T13:57:53.432Z,1.90
2024-04-05T14:00:24.099Z,2.70
2024-04-05T14:02:54.695Z,0.60
2024-04-05T14:05:25.400Z,1.90
2024-04-05T14:07:58.463Z,0.70
2024-04-05T14:10:29.097Z,1.30
2024-04-05T14:12:59.812Z,1.40
2024-04-05T14:15:30.284Z,1.50
2024-04-05T14:18:00.744Z,1.70
2024-04-05T14:20:37.898Z,0.60
2024-04-05T14:23:09.367Z,2.50
2024-04-05T14:25:46.730Z,0.60
2024-04-05T14:28:17.719Z,0.70
2024-04-05T14:30:59.653Z,1.50
2024-04-05T14:33:38.348Z,1.20
2024-04-05T14:36:10.513Z,1.80
2024-04-05T14:38:43.494Z,1.90
2024-04-05T14:41:17.026Z,0.90
2024-04-05T14:43:48.038Z,2.70
2024-04-05T14:46:18.363Z,0.70
2024-04-05T14:48:48.918Z,1.40
2024-04-05T14:51:19.482Z,0.70
2024-04-05T14:53:52.442Z,2.80
2024-04-05T14:56:23.269Z,1.00
2024-04-05T14:58:53.840Z,1.80
2024-04-05T15:01:24.157Z,0.50
2024-04-05T15:03:54.633Z,1.10
2024-04-05T15:06:25.473Z,1.60
2024-04-05T15:08:55.983Z,0.70
2024-04-05T15:11:27.673Z,1.40
2024-04-05T15:13:58.854Z,1.80
2024-04-05T15:16:29.378Z,2.00
2024-04-05T15:19:01.136Z,1.80
2024-04-05T15:21:32.026Z,1.00
2024-04-05T15:24:02.587Z,0.80
2024-04-05T15:26:33.306Z,1.80
2024-04-05T15:29:03.845Z,0.70
2024-04-05T15:31:38.710Z,1.60
2024-04-05T15:34:09.308Z,1.10
2024-04-05T15:36:39.939Z,0.80
2024-04-05T15:39:11.731Z,0.90
2024-04-05T15:41:42.774Z,0.80
2024-04-05T15:44:13.395Z,1.20
2024-04-05T15:46:44.281Z,1.80
2024-04-05T15:49:15.022Z,1.40
2024-04-05T15:51:45.792Z,2.20
2024-04-05T15:54:16.503Z,2.40
2024-04-05T15:56:47.013Z,0.60
2024-04-05T15:59:17.588Z,2.20
2024-04-05T16:01:48.111Z,0.60
2024-04-05T16:04:18.593Z,0.50
2024-04-05T16:06:49.947Z,0.70
2024-04-05T16:09:20.553Z,1.10
2024-04-05T16:11:53.277Z,1.10
2024-04-05T16:14:23.769Z,1.40
2024-04-05T16:16:54.134Z,2.80
2024-04-05T16:19:24.640Z,0.90
2024-04-05T16:21:55.414Z,0.70
2024-04-05T16:24:28.809Z,1.30
2024-04-05T16:26:59.299Z,0.70
2024-04-05T16:29:35.150Z,1.40
2024-04-05T16:32:06.995Z,0.80
2024-04-05T16:34:45.905Z,0.60
2024-04-05T16:37:16.678Z,1.20
2024-04-05T16:39:47.107Z,0.50
2024-04-05T16:42:18.258Z,1.70
2024-04-05T16:44:51.971Z,0.40
2024-04-05T16:47:22.394Z,0.90
2024-04-05T16:49:53.001Z,0.60
2024-04-05T16:52:23.562Z,0.50
2024-04-05T16:54:57.992Z,0.40
2024-04-05T16:57:28.946Z,0.90
2024-04-05T17:00:01.258Z,0.50
2024-04-05T17:02:42.376Z,1.30
2024-04-05T17:05:14.985Z,0.30
2024-04-05T17:07:47.542Z,0.40
2024-04-05T17:10:24.120Z,1.30
2024-04-05T17:12:56.216Z,0.70
2024-04-05T17:15:26.829Z,1.80
2024-04-05T17:17:59.188Z,1.10
2024-04-05T17:20:30.364Z,0.80
2024-04-05T17:23:01.179Z,0.30
2024-04-05T17:25:31.995Z,0.60
2024-04-05T17:28:02.613Z,0.70
2024-04-05T17:30:33.200Z,1.60
2024-04-05T17:33:04.977Z,0.40
2024-04-05T17:35:35.940Z,1.90
2024-04-05T17:38:07.846Z,1.10
2024-04-05T17:40:38.342Z,0.80
2024-04-05T17:43:09.601Z,1.50
2024-04-05T17:45:40.748Z,0.60
2024-04-05T17:48:12.294Z,1.60
2024-04-05T17:50:43.128Z,3.10
2024-04-05T17:53:13.716Z,2.80
2024-04-05T17:55:44.512Z,0.90
2024-04-05T17:58:15.828Z,1.90
2024-04-05T18:00:46.564Z,1.20
2024-04-05T18:03:17.720Z,2.70
2024-04-05T18:05:48.300Z,1.40
2024-04-05T18:08:19.626Z,2.10
2024-04-05T18:10:50.355Z,1.30
2024-04-05T18:13:21.950Z,1.10
2024-04-05T18:15:52.597Z,1.60
2024-04-05T18:18:23.507Z,0.50
2024-04-05T18:20:54.133Z,0.70
2024-04-05T18:23:24.746Z,1.50
2024-04-05T18:25:56.443Z,1.20
2024-04-05T18:28:27.033Z,1.20
2024-04-05T18:30:57.600Z,1.40
2024-04-05T18:33:31.725Z,0.70
2024-04-05T18:36:08.910Z,1.00
2024-04-05T18:38:39.619Z,0.60
2024-04-05T18:41:11.379Z,1.20
2024-04-05T18:43:42.528Z,0.60
2024-04-05T18:46:13.695Z,2.50
2024-04-05T18:48:45.416Z,0.50
2024-04-05T18:51:22.155Z,1.00
2024-04-05T18:53:52.798Z,1.00
2024-04-05T18:56:23.600Z,0.50
2024-04-05T18:58:54.602Z,0.70
2024-04-05T19:01:25.549Z,1.10
2024-04-05T19:03:56.623Z,0.90
2024-04-05T19:06:27.600Z,0.70
2024-04-05T19:09:00.285Z,1.30
2024-04-05T19:11:31.546Z,0.50
2024-04-05T19:14:02.317Z,1.10
2024-04-05T19:16:36.324Z,0.60
2024-04-05T19:19:08.623Z,0.70
2024-04-05T19:21:41.682Z,1.60
2024-04-05T19:24:12.940Z,0.70
2024-04-05T19:26:43.671Z,0.80
2024-04-05T19:29:18.377Z,1.60
2024-04-05T19:31:49.195Z,0.70
2024-04-05T19:34:19.803Z,1.00
2024-04-05T19:36:52.499Z,1.30
2024-04-05T19:39:23.047Z,1.80
2024-04-05T19:41:55.279Z,1.30
2024-04-05T19:44:25.981Z,0.90
2024-04-05T19:46:56.741Z,0.90
2024-04-05T19:49:28.144Z,1.80
2024-04-05T19:52:00.683Z,6.40
2024-04-05T19:54:31.335Z,0.70
2024-04-05T19:57:01.742Z,0.80
2024-04-05T19:59:32.169Z,0.70
2024-04-05T20:02:03.455Z,1.70
2024-04-05T20:04:34.064Z,2.30
2024-04-05T20:07:04.920Z,1.00
2024-04-05T20:09:35.843Z,1.40
2024-04-05T20:12:07.848Z,1.40
2024-04-05T20:14:38.433Z,1.30
2024-04-05T20:17:09.339Z,0.50
2024-04-05T20:19:40.550Z,0.70
2024-04-05T20:22:12.140Z,1.70
2024-04-05T20:24:42.725Z,0.70
2024-04-05T20:27:13.256Z,1.00
2024-04-05T20:30:01.489Z,0.90
2024-04-05T20:32:33.299Z,0.80
2024-04-05T20:35:04.930Z,0.90
2024-04-05T20:37:35.827Z,1.00
2024-04-05T20:40:08.330Z,1.00
2024-04-05T20:42:38.963Z,1.10
2024-04-05T20:45:11.504Z,1.20
2024-04-05T20:47:42.101Z,1.50
2024-04-05T20:50:13.036Z,1.80
2024-04-05T20:52:43.585Z,4.00
2024-04-05T20:55:15.041Z,3.10
2024-04-05T20:57:45.419Z,1.00
2024-04-05T21:00:17.842Z,2.60
2024-04-05T21:02:48.458Z,1.20
2024-04-05T21:05:19.115Z,1.60
2024-04-05T21:07:49.806Z,1.60
2024-04-05T21:10:20.363Z,0.80
2024-04-05T21:12:50.902Z,1.50
2024-04-05T21:15:21.485Z,1.50
2024-04-05T21:17:51.959Z,1.10
2024-04-05T21:20:22.458Z,1.00
2024-04-05T21:22:53.100Z,1.20
2024-04-05T21:25:23.511Z,1.80
2024-04-05T21:27:54.009Z,2.20
2024-04-05T21:30:24.940Z,1.10
2024-04-05T21:32:55.762Z,2.10
2024-04-05T21:35:26.436Z,1.50
2024-04-05T21:37:56.886Z,0.90
2024-04-05T21:40:27.628Z,1.70
2024-04-05T21:42:58.261Z,1.00
2024-04-05T21:45:29.296Z,2.00
2024-04-05T21:47:59.751Z,0.80
2024-04-05T21:51:18.161Z,1.80
2024-04-05T21:53:21.477Z,1.00
2024-04-05T21:55:52.066Z,1.10
2024-04-05T21:58:23.617Z,1.70
2024-04-05T22:00:54.208Z,0.90
2024-04-05T22:03:25.318Z,1.00
2024-04-05T22:05:56.077Z,1.20
2024-04-05T22:08:27.817Z,0.80
2024-04-05T22:10:58.340Z,1.10
2024-04-05T22:13:28.671Z,1.10
2024-04-05T22:15:59.578Z,1.10
2024-04-05T22:18:30.084Z,0.70
2024-04-05T22:21:01.690Z,0.70
2024-04-05T22:23:31.950Z,0.90
2024-04-05T22:26:02.893Z,0.70
2024-04-05T22:28:34.005Z,0.70
2024-04-05T22:31:04.669Z,0.70
2024-04-05T22:33:35.185Z,0.80
2024-04-05T22:36:06.351Z,1.00
2024-04-05T22:38:36.942Z,1.10
2024-04-05T22:41:07.558Z,1.60
2024-04-05T22:43:37.899Z,2.30
2024-04-05T22:46:08.851Z,0.80
2024-04-05T22:48:39.523Z,1.10
2024-04-05T22:51:09.804Z,0.90
2024-04-05T22:53:40.159Z,0.50
2024-04-05T22:56:10.919Z,1.50
2024-04-05T22:58:41.193Z,0.70
2024-04-05T23:01:11.534Z,0.80
2024-04-05T23:03:41.947Z,0.50
2024-04-05T23:06:12.631Z,1.00
2024-04-05T23:08:43.045Z,1.10
2024-04-05T23:11:13.426Z,0.60
2024-04-05T23:13:43.930Z,0.80
2024-04-05T23:16:14.367Z,1.30
2024-04-05T23:18:44.986Z,1.10
2024-04-05T23:21:16.170Z,1.70
2024-04-05T23:23:46.378Z,0.60
2024-04-05T23:26:16.687Z,0.80
2024-04-05T23:28:47.057Z,0.80
2024-04-05T23:31:17.458Z,0.50
2024-04-05T23:33:47.844Z,0.50
2024-04-05T23:36:18.694Z,0.80
2024-04-05T23:38:49.007Z,0.70
2024-04-05T23:41:19.371Z,1.20
2024-04-05T23:43:49.778Z,0.80
2024-04-05T23:46:20.187Z,1.50
2024-04-05T23:48:50.651Z,0.50
2024-04-05T23:51:21.000Z,1.40
2024-04-05T23:53:52.155Z,1.00
2024-04-05T23:56:26.591Z,1.70
2024-04-05T23:58:57.199Z,0.70
